sensor_id;sensor_type;location;lat;lon;timestamp;noise_LAeq;noise_LA_min;noise_LA_max;noise_LA01;noise_LA95
37163;Laerm;23057;48.554;14.454;2024-01-30T00:02:14;36.86;31.68;39.70;;
37163;Laerm;23057;48.554;14.454;2024-01-30T00:04:45;36.88;31.68;39.81;;
37163;Laerm;23057;48.554;14.454;2024-01-30T00:07:16;36.88;31.68;39.81;;
37163;Laerm;23057;48.554;14.454;2024-01-30T00:09:47;36.88;31.68;39.92;;
37163;Laerm;23057;48.554;14.454;2024-01-30T00:12:20;36.88;29.92;39.58;;
37163;Laerm;23057;48.554;14.454;2024-01-30T00:14:51;36.91;32.93;39.70;;
37163;Laerm;23057;48.554;14.454;2024-01-30T00:17:22;36.92;31.68;39.81;;
37163;Laerm;23057;48.554;14.454;2024-01-30T00:19:55;36.93;32.35;39.46;;
37163;Laerm;23057;48.554;14.454;2024-01-30T00:22:26;36.93;31.68;39.92;;
37163;Laerm;23057;48.554;14.454;2024-01-30T00:24:57;36.88;31.68;39.81;;
37163;Laerm;23057;48.554;14.454;2024-01-30T00:27:28;36.93;31.68;39.92;;
37163;Laerm;23057;48.554;14.454;2024-01-30T00:29:59;36.91;29.92;39.89;;
37163;Laerm;23057;48.554;14.454;2024-01-30T00:32:30;36.93;31.68;39.58;;
37163;Laerm;23057;48.554;14.454;2024-01-30T00:35:00;36.91;30.89;39.70;;
37163;Laerm;23057;48.554;14.454;2024-01-30T00:37:31;36.89;29.92;39.92;;
37163;Laerm;23057;48.554;14.454;2024-01-30T00:40:03;36.93;32.35;39.92;;
37163;Laerm;23057;48.554;14.454;2024-01-30T00:42:34;36.89;30.89;39.81;;
37163;Laerm;23057;48.554;14.454;2024-01-30T00:45:05;36.89;30.89;39.70;;
37163;Laerm;23057;48.554;14.454;2024-01-30T00:47:37;36.87;31.68;39.81;;
37163;Laerm;23057;48.554;14.454;2024-01-30T00:50:09;36.91;30.89;39.70;;
37163;Laerm;23057;48.554;14.454;2024-01-30T00:52:40;36.88;32.35;39.81;;
37163;Laerm;23057;48.554;14.454;2024-01-30T00:55:12;36.90;32.35;40.03;;
37163;Laerm;23057;48.554;14.454;2024-01-30T00:57:44;36.88;31.68;39.92;;
37163;Laerm;23057;48.554;14.454;2024-01-30T01:00:15;36.90;30.89;39.46;;
37163;Laerm;23057;48.554;14.454;2024-01-30T01:02:47;36.90;31.68;39.70;;
37163;Laerm;23057;48.554;14.454;2024-01-30T01:05:18;36.90;30.89;39.58;;
37163;Laerm;23057;48.554;14.454;2024-01-30T01:07:49;36.92;31.68;39.70;;
37163;Laerm;23057;48.554;14.454;2024-01-30T01:10:20;36.92;31.68;39.58;;
37163;Laerm;23057;48.554;14.454;2024-01-30T01:12:51;36.90;31.68;39.34;;
37163;Laerm;23057;48.554;14.454;2024-01-30T01:15:21;36.89;28.67;40.03;;
37163;Laerm;23057;48.554;14.454;2024-01-30T01:17:52;36.87;32.35;39.58;;
37163;Laerm;23057;48.554;14.454;2024-01-30T01:20:23;36.88;31.68;39.92;;
37163;Laerm;23057;48.554;14.454;2024-01-30T01:22:54;36.87;30.89;39.58;;
37163;Laerm;23057;48.554;14.454;2024-01-30T01:25:25;36.86;30.89;39.81;;
37163;Laerm;23057;48.554;14.454;2024-01-30T01:27:55;36.88;32.35;39.92;;
37163;Laerm;23057;48.554;14.454;2024-01-30T01:30:27;36.86;31.68;40.03;;
37163;Laerm;23057;48.554;14.454;2024-01-30T01:32:59;36.90;29.92;39.92;;
37163;Laerm;23057;48.554;14.454;2024-01-30T01:35:32;36.91;32.93;39.81;;
37163;Laerm;23057;48.554;14.454;2024-01-30T01:38:03;36.91;31.68;39.81;;
37163;Laerm;23057;48.554;14.454;2024-01-30T01:40:35;36.89;32.35;39.81;;
37163;Laerm;23057;48.554;14.454;2024-01-30T01:43:06;36.93;31.68;39.92;;
37163;Laerm;23057;48.554;14.454;2024-01-30T01:45:37;36.93;32.35;39.70;;
37163;Laerm;23057;48.554;14.454;2024-01-30T01:48:08;36.90;31.68;40.03;;
37163;Laerm;23057;48.554;14.454;2024-01-30T01:50:41;36.91;30.89;39.58;;
37163;Laerm;23057;48.554;14.454;2024-01-30T01:53:13;36.91;30.89;39.70;;
37163;Laerm;23057;48.554;14.454;2024-01-30T01:55:45;36.91;31.68;39.46;;
37163;Laerm;23057;48.554;14.454;2024-01-30T01:58:19;36.92;31.68;39.81;;
37163;Laerm;23057;48.554;14.454;2024-01-30T02:00:51;36.91;31.68;39.70;;
37163;Laerm;23057;48.554;14.454;2024-01-30T02:03:22;36.89;31.68;39.92;;
37163;Laerm;23057;48.554;14.454;2024-01-30T02:05:55;36.88;30.89;40.13;;
37163;Laerm;23057;48.554;14.454;2024-01-30T02:08:26;36.84;30.89;39.58;;
37163;Laerm;23057;48.554;14.454;2024-01-30T02:10:58;36.86;30.89;39.70;;
37163;Laerm;23057;48.554;14.454;2024-01-30T02:13:28;36.91;31.68;39.92;;
37163;Laerm;23057;48.554;14.454;2024-01-30T02:15:59;36.89;32.35;39.81;;
37163;Laerm;23057;48.554;14.454;2024-01-30T02:18:30;36.91;31.68;39.70;;
37163;Laerm;23057;48.554;14.454;2024-01-30T02:21:05;36.92;31.68;39.46;;
37163;Laerm;23057;48.554;14.454;2024-01-30T02:23:39;36.87;31.68;39.34;;
37163;Laerm;23057;48.554;14.454;2024-01-30T02:26:11;36.90;31.68;39.81;;
37163;Laerm;23057;48.554;14.454;2024-01-30T02:28:42;36.91;31.68;39.92;;
37163;Laerm;23057;48.554;14.454;2024-01-30T02:31:13;36.89;32.35;39.58;;
37163;Laerm;23057;48.554;14.454;2024-01-30T02:33:44;36.89;32.93;39.81;;
37163;Laerm;23057;48.554;14.454;2024-01-30T02:36:15;36.91;31.68;40.13;;
37163;Laerm;23057;48.554;14.454;2024-01-30T02:38:46;36.88;31.68;39.92;;
37163;Laerm;23057;48.554;14.454;2024-01-30T02:41:17;36.88;32.35;39.92;;
37163;Laerm;23057;48.554;14.454;2024-01-30T02:43:48;36.90;30.89;39.58;;
37163;Laerm;23057;48.554;14.454;2024-01-30T02:46:18;36.89;31.68;39.81;;
37163;Laerm;23057;48.554;14.454;2024-01-30T02:48:49;36.87;32.35;39.70;;
37163;Laerm;23057;48.554;14.454;2024-01-30T02:51:20;36.90;32.35;39.92;;
37163;Laerm;23057;48.554;14.454;2024-01-30T02:53:51;36.91;32.35;39.58;;
37163;Laerm;23057;48.554;14.454;2024-01-30T02:56:22;36.92;29.92;39.46;;
37163;Laerm;23057;48.554;14.454;2024-01-30T02:58:53;36.91;31.68;39.58;;
37163;Laerm;23057;48.554;14.454;2024-01-30T03:01:24;36.86;31.68;39.46;;
37163;Laerm;23057;48.554;14.454;2024-01-30T03:03:55;36.87;30.89;39.81;;
37163;Laerm;23057;48.554;14.454;2024-01-30T03:06:26;36.85;32.35;39.70;;
37163;Laerm;23057;48.554;14.454;2024-01-30T03:08:56;36.85;31.68;39.58;;
37163;Laerm;23057;48.554;14.454;2024-01-30T03:11:27;36.87;26.91;39.81;;
37163;Laerm;23057;48.554;14.454;2024-01-30T03:13:58;36.89;31.68;39.34;;
37163;Laerm;23057;48.554;14.454;2024-01-30T03:16:29;36.93;30.89;39.46;;
37163;Laerm;23057;48.554;14.454;2024-01-30T03:19:00;36.91;31.68;39.81;;
37163;Laerm;23057;48.554;14.454;2024-01-30T03:21:32;36.89;32.35;39.81;;
37163;Laerm;23057;48.554;14.454;2024-01-30T03:24:03;36.91;32.35;39.70;;
37163;Laerm;23057;48.554;14.454;2024-01-30T03:26:34;36.90;32.35;39.46;;
37163;Laerm;23057;48.554;14.454;2024-01-30T03:29:05;36.93;30.89;39.81;;
37163;Laerm;23057;48.554;14.454;2024-01-30T03:31:36;36.92;31.68;39.81;;
37163;Laerm;23057;48.554;14.454;2024-01-30T03:34:07;36.88;30.89;39.81;;
37163;Laerm;23057;48.554;14.454;2024-01-30T03:36:38;36.94;32.35;40.03;;
37163;Laerm;23057;48.554;14.454;2024-01-30T03:39:09;36.93;31.68;39.58;;
37163;Laerm;23057;48.554;14.454;2024-01-30T03:41:42;36.91;32.35;39.70;;
37163;Laerm;23057;48.554;14.454;2024-01-30T03:44:14;36.90;31.68;40.03;;
37163;Laerm;23057;48.554;14.454;2024-01-30T03:46:46;36.90;30.89;39.92;;
37163;Laerm;23057;48.554;14.454;2024-01-30T03:49:23;36.94;31.68;40.03;;
37163;Laerm;23057;48.554;14.454;2024-01-30T03:52:00;36.93;30.89;39.78;;
37163;Laerm;23057;48.554;14.454;2024-01-30T03:54:33;36.90;32.35;39.81;;
37163;Laerm;23057;48.554;14.454;2024-01-30T03:57:05;36.90;32.35;39.92;;
37163;Laerm;23057;48.554;14.454;2024-01-30T03:59:36;36.93;31.33;39.78;;
37163;Laerm;23057;48.554;14.454;2024-01-30T04:02:06;36.90;32.00;40.03;;
37163;Laerm;23057;48.554;14.454;2024-01-30T04:04:37;36.91;31.68;40.03;;
37163;Laerm;23057;48.554;14.454;2024-01-30T04:07:08;36.92;31.68;39.70;;
37163;Laerm;23057;48.554;14.454;2024-01-30T04:09:39;36.93;32.35;39.81;;
37163;Laerm;23057;48.554;14.454;2024-01-30T04:12:10;36.88;31.68;40.03;;
37163;Laerm;23057;48.554;14.454;2024-01-30T04:14:41;36.92;32.35;40.08;;
37163;Laerm;23057;48.554;14.454;2024-01-30T04:17:12;36.93;30.89;39.58;;
37163;Laerm;23057;48.554;14.454;2024-01-30T04:19:42;36.91;32.35;39.70;;
37163;Laerm;23057;48.554;14.454;2024-01-30T04:22:13;36.92;32.93;39.92;;
37163;Laerm;23057;48.554;14.454;2024-01-30T04:24:44;36.91;31.68;40.03;;
37163;Laerm;23057;48.554;14.454;2024-01-30T04:27:15;36.93;31.68;39.81;;
37163;Laerm;23057;48.554;14.454;2024-01-30T04:29:45;36.89;30.89;39.58;;
37163;Laerm;23057;48.554;14.454;2024-01-30T04:32:16;36.91;29.92;39.81;;
37163;Laerm;23057;48.554;14.454;2024-01-30T04:34:47;36.91;29.92;40.13;;
37163;Laerm;23057;48.554;14.454;2024-01-30T04:37:18;36.87;30.89;40.03;;
37163;Laerm;23057;48.554;14.454;2024-01-30T04:39:49;36.90;31.68;39.92;;
37163;Laerm;23057;48.554;14.454;2024-01-30T04:42:20;36.89;31.68;39.70;;
37163;Laerm;23057;48.554;14.454;2024-01-30T04:44:51;36.88;30.89;39.70;;
37163;Laerm;23057;48.554;14.454;2024-01-30T04:47:22;36.88;29.92;39.81;;
37163;Laerm;23057;48.554;14.454;2024-01-30T04:49:53;36.93;28.67;39.81;;
37163;Laerm;23057;48.554;14.454;2024-01-30T04:52:24;36.89;31.68;40.13;;
37163;Laerm;23057;48.554;14.454;2024-01-30T04:54:54;36.91;30.89;39.81;;
37163;Laerm;23057;48.554;14.454;2024-01-30T04:57:25;36.91;31.68;39.58;;
37163;Laerm;23057;48.554;14.454;2024-01-30T04:59:56;36.93;31.68;39.81;;
37163;Laerm;23057;48.554;14.454;2024-01-30T05:02:27;36.90;32.35;39.81;;
37163;Laerm;23057;48.554;14.454;2024-01-30T05:04:58;36.93;29.92;39.70;;
37163;Laerm;23057;48.554;14.454;2024-01-30T05:07:29;36.93;31.68;39.70;;
37163;Laerm;23057;48.554;14.454;2024-01-30T05:10:01;36.91;32.35;39.81;;
37163;Laerm;23057;48.554;14.454;2024-01-30T05:12:31;36.89;30.89;39.58;;
37163;Laerm;23057;48.554;14.454;2024-01-30T05:15:03;36.94;31.68;39.92;;
37163;Laerm;23057;48.554;14.454;2024-01-30T05:17:33;36.95;31.68;39.70;;
37163;Laerm;23057;48.554;14.454;2024-01-30T05:20:05;36.97;31.68;40.71;;
37163;Laerm;23057;48.554;14.454;2024-01-30T05:22:36;36.96;30.54;39.70;;
37163;Laerm;23057;48.554;14.454;2024-01-30T05:25:07;36.94;30.89;39.58;;
37163;Laerm;23057;48.554;14.454;2024-01-30T05:27:38;36.95;32.35;39.81;;
37163;Laerm;23057;48.554;14.454;2024-01-30T05:30:10;36.99;29.92;39.81;;
37163;Laerm;23057;48.554;14.454;2024-01-30T05:32:41;36.99;32.35;39.70;;
37163;Laerm;23057;48.554;14.454;2024-01-30T05:35:12;37.00;32.35;40.23;;
37163;Laerm;23057;48.554;14.454;2024-01-30T05:37:43;36.97;31.68;40.23;;
37163;Laerm;23057;48.554;14.454;2024-01-30T05:40:14;36.99;30.89;40.13;;
37163;Laerm;23057;48.554;14.454;2024-01-30T05:42:45;36.97;32.35;40.13;;
37163;Laerm;23057;48.554;14.454;2024-01-30T05:45:16;36.97;30.89;39.81;;
37163;Laerm;23057;48.554;14.454;2024-01-30T05:47:46;36.96;32.35;39.81;;
37163;Laerm;23057;48.554;14.454;2024-01-30T05:50:17;36.98;30.89;40.03;;
37163;Laerm;23057;48.554;14.454;2024-01-30T05:52:48;36.99;31.68;40.23;;
37163;Laerm;23057;48.554;14.454;2024-01-30T05:55:19;37.00;32.35;39.46;;
37163;Laerm;23057;48.554;14.454;2024-01-30T05:57:50;36.98;31.68;40.13;;
37163;Laerm;23057;48.554;14.454;2024-01-30T06:00:22;37.00;30.89;40.13;;
37163;Laerm;23057;48.554;14.454;2024-01-30T06:02:53;36.99;30.89;40.13;;
37163;Laerm;23057;48.554;14.454;2024-01-30T06:05:24;37.00;29.92;39.81;;
37163;Laerm;23057;48.554;14.454;2024-01-30T06:07:55;36.95;31.68;40.23;;
37163;Laerm;23057;48.554;14.454;2024-01-30T06:10:25;36.98;31.68;40.33;;
37163;Laerm;23057;48.554;14.454;2024-01-30T06:12:56;36.97;31.68;39.92;;
37163;Laerm;23057;48.554;14.454;2024-01-30T06:15:27;36.99;32.35;39.92;;
37163;Laerm;23057;48.554;14.454;2024-01-30T06:18:00;36.98;31.68;39.81;;
37163;Laerm;23057;48.554;14.454;2024-01-30T06:20:31;36.95;30.89;39.81;;
37163;Laerm;23057;48.554;14.454;2024-01-30T06:23:02;36.93;31.68;39.46;;
37163;Laerm;23057;48.554;14.454;2024-01-30T06:25:32;36.97;32.58;39.81;;
37163;Laerm;23057;48.554;14.454;2024-01-30T06:28:04;36.98;32.93;39.81;;
37163;Laerm;23057;48.554;14.454;2024-01-30T06:30:35;36.97;31.68;39.70;;
37163;Laerm;23057;48.554;14.454;2024-01-30T06:33:05;36.97;31.68;40.13;;
37163;Laerm;23057;48.554;14.454;2024-01-30T06:35:36;36.99;32.35;39.58;;
37163;Laerm;23057;48.554;14.454;2024-01-30T06:38:10;37.00;32.35;39.92;;
37163;Laerm;23057;48.554;14.454;2024-01-30T06:40:42;36.99;32.93;39.81;;
37163;Laerm;23057;48.554;14.454;2024-01-30T06:43:12;36.98;32.35;40.13;;
37163;Laerm;23057;48.554;14.454;2024-01-30T06:45:43;37.00;32.35;39.81;;
37163;Laerm;23057;48.554;14.454;2024-01-30T06:48:14;36.97;32.35;39.70;;
37163;Laerm;23057;48.554;14.454;2024-01-30T06:50:45;36.96;31.68;39.99;;
37163;Laerm;23057;48.554;14.454;2024-01-30T06:53:16;37.01;32.35;40.23;;
37163;Laerm;23057;48.554;14.454;2024-01-30T06:55:47;37.02;31.68;39.81;;
37163;Laerm;23057;48.554;14.454;2024-01-30T06:58:18;37.06;32.35;39.78;;
37163;Laerm;23057;48.554;14.454;2024-01-30T07:00:49;37.11;32.35;40.03;;
37163;Laerm;23057;48.554;14.454;2024-01-30T07:03:20;37.20;31.68;39.92;;
37163;Laerm;23057;48.554;14.454;2024-01-30T07:05:50;37.42;33.44;40.13;;
37163;Laerm;23057;48.554;14.454;2024-01-30T07:08:22;37.62;33.90;40.03;;
37163;Laerm;23057;48.554;14.454;2024-01-30T07:10:53;37.76;34.69;40.53;;
37163;Laerm;23057;48.554;14.454;2024-01-30T07:13:25;37.88;34.31;40.43;;
37163;Laerm;23057;48.554;14.454;2024-01-30T07:15:56;38.08;34.69;40.23;;
37163;Laerm;23057;48.554;14.454;2024-01-30T07:18:27;38.23;34.31;40.71;;
37163;Laerm;23057;48.554;14.454;2024-01-30T07:20:58;38.32;35.36;40.89;;
37163;Laerm;23057;48.554;14.454;2024-01-30T07:23:28;38.36;34.69;40.79;;
37163;Laerm;23057;48.554;14.454;2024-01-30T07:26:01;38.39;35.66;41.06;;
37163;Laerm;23057;48.554;14.454;2024-01-30T07:28:32;38.39;35.04;40.71;;
37163;Laerm;23057;48.554;14.454;2024-01-30T07:31:04;38.42;35.36;40.98;;
37163;Laerm;23057;48.554;14.454;2024-01-30T07:33:34;38.46;35.36;40.71;;
37163;Laerm;23057;48.554;14.454;2024-01-30T07:36:06;38.51;35.36;40.89;;
37163;Laerm;23057;48.554;14.454;2024-01-30T07:38:37;38.53;35.04;40.62;;
37163;Laerm;23057;48.554;14.454;2024-01-30T07:41:08;38.53;35.36;40.80;;
37163;Laerm;23057;48.554;14.454;2024-01-30T07:43:39;38.53;35.04;41.22;;
37163;Laerm;23057;48.554;14.454;2024-01-30T07:46:10;38.52;35.04;40.62;;
37163;Laerm;23057;48.554;14.454;2024-01-30T07:48:41;38.49;34.69;40.98;;
37163;Laerm;23057;48.554;14.454;2024-01-30T07:51:11;38.50;34.31;40.89;;
37163;Laerm;23057;48.554;14.454;2024-01-30T07:53:42;38.47;35.04;40.80;;
37163;Laerm;23057;48.554;14.454;2024-01-30T07:56:13;38.49;35.31;40.71;;
37163;Laerm;23057;48.554;14.454;2024-01-30T07:58:44;38.49;34.69;40.80;;
37163;Laerm;23057;48.554;14.454;2024-01-30T08:01:16;38.46;35.04;41.14;;
37163;Laerm;23057;48.554;14.454;2024-01-30T08:03:46;38.44;35.04;41.06;;
37163;Laerm;23057;48.554;14.454;2024-01-30T08:06:17;38.43;35.31;41.14;;
37163;Laerm;23057;48.554;14.454;2024-01-30T08:08:48;38.43;34.69;40.62;;
37163;Laerm;23057;48.554;14.454;2024-01-30T08:11:20;38.33;35.04;40.43;;
37163;Laerm;23057;48.554;14.454;2024-01-30T08:13:56;38.24;34.69;40.80;;
37163;Laerm;23057;48.554;14.454;2024-01-30T08:16:26;38.18;35.04;40.80;;
37163;Laerm;23057;48.554;14.454;2024-01-30T08:18:57;38.12;35.04;40.23;;
37163;Laerm;23057;48.554;14.454;2024-01-30T08:21:28;38.03;34.69;40.62;;
37163;Laerm;23057;48.554;14.454;2024-01-30T08:23:59;37.97;34.69;40.89;;
37163;Laerm;23057;48.554;14.454;2024-01-30T08:26:31;37.95;33.90;40.13;;
37163;Laerm;23057;48.554;14.454;2024-01-30T08:29:02;37.94;35.31;40.23;;
37163;Laerm;23057;48.554;14.454;2024-01-30T08:31:33;37.92;34.69;40.13;;
37163;Laerm;23057;48.554;14.454;2024-01-30T08:34:04;37.90;34.69;40.23;;
37163;Laerm;23057;48.554;14.454;2024-01-30T08:36:35;37.86;34.69;40.23;;
37163;Laerm;23057;48.554;14.454;2024-01-30T08:39:06;37.86;34.31;40.43;;
37163;Laerm;23057;48.554;14.454;2024-01-30T08:41:37;37.84;34.69;40.23;;
37163;Laerm;23057;48.554;14.454;2024-01-30T08:44:08;37.82;32.93;40.43;;
37163;Laerm;23057;48.554;14.454;2024-01-30T08:46:41;37.81;34.31;40.43;;
37163;Laerm;23057;48.554;14.454;2024-01-30T08:49:16;37.80;34.31;40.53;;
37163;Laerm;23057;48.554;14.454;2024-01-30T08:51:47;37.80;34.69;40.03;;
37163;Laerm;23057;48.554;14.454;2024-01-30T08:54:18;37.79;33.90;40.13;;
37163;Laerm;23057;48.554;14.454;2024-01-30T08:56:49;37.78;34.31;40.03;;
37163;Laerm;23057;48.554;14.454;2024-01-30T08:59:20;37.76;34.31;40.43;;
37163;Laerm;23057;48.554;14.454;2024-01-30T09:01:50;37.78;32.93;40.23;;
37163;Laerm;23057;48.554;14.454;2024-01-30T09:04:24;37.73;34.31;39.99;;
37163;Laerm;23057;48.554;14.454;2024-01-30T09:06:55;37.78;34.34;40.53;;
37163;Laerm;23057;48.554;14.454;2024-01-30T09:09:25;37.77;34.31;40.33;;
37163;Laerm;23057;48.554;14.454;2024-01-30T09:11:56;37.79;34.31;41.46;;
37163;Laerm;23057;48.554;14.454;2024-01-30T09:14:28;37.71;34.31;40.23;;
37163;Laerm;23057;48.554;14.454;2024-01-30T09:16:59;37.73;33.90;40.43;;
37163;Laerm;23057;48.554;14.454;2024-01-30T09:19:30;37.76;33.90;40.23;;
37163;Laerm;23057;48.554;14.454;2024-01-30T09:22:01;37.81;33.90;40.71;;
37163;Laerm;23057;48.554;14.454;2024-01-30T09:24:33;37.83;34.69;40.13;;
37163;Laerm;23057;48.554;14.454;2024-01-30T09:27:05;37.83;35.04;40.23;;
37163;Laerm;23057;48.554;14.454;2024-01-30T09:29:36;37.83;34.31;39.92;;
37163;Laerm;23057;48.554;14.454;2024-01-30T09:32:08;37.81;34.31;40.13;;
37163;Laerm;23057;48.554;14.454;2024-01-30T09:34:39;37.82;34.69;40.33;;
37163;Laerm;23057;48.554;14.454;2024-01-30T09:37:10;37.85;34.69;40.33;;
37163;Laerm;23057;48.554;14.454;2024-01-30T09:39:41;37.86;34.31;40.43;;
37163;Laerm;23057;48.554;14.454;2024-01-30T09:45:04;37.85;34.31;40.33;;
37163;Laerm;23057;48.554;14.454;2024-01-30T09:47:43;37.88;33.90;40.33;;
37163;Laerm;23057;48.554;14.454;2024-01-30T09:50:17;37.87;34.31;40.33;;
37163;Laerm;23057;48.554;14.454;2024-01-30T09:52:49;37.91;33.90;40.13;;
37163;Laerm;23057;48.554;14.454;2024-01-30T09:55:22;37.91;33.90;40.23;;
37163;Laerm;23057;48.554;14.454;2024-01-30T09:57:53;37.91;33.90;40.33;;
37163;Laerm;23057;48.554;14.454;2024-01-30T10:00:24;37.92;34.69;40.33;;
37163;Laerm;23057;48.554;14.454;2024-01-30T10:02:57;37.93;34.31;40.23;;
37163;Laerm;23057;48.554;14.454;2024-01-30T10:05:32;37.95;34.31;40.43;;
37163;Laerm;23057;48.554;14.454;2024-01-30T10:08:08;37.92;33.44;40.23;;
37163;Laerm;23057;48.554;14.454;2024-01-30T10:10:38;37.93;34.69;40.36;;
37163;Laerm;23057;48.554;14.454;2024-01-30T10:13:10;37.92;34.69;40.43;;
37163;Laerm;23057;48.554;14.454;2024-01-30T10:15:42;37.93;33.90;40.43;;
37163;Laerm;23057;48.554;14.454;2024-01-30T10:18:13;37.98;34.69;40.43;;
37163;Laerm;23057;48.554;14.454;2024-01-30T10:20:44;37.98;34.69;40.43;;
37163;Laerm;23057;48.554;14.454;2024-01-30T10:23:15;38.00;34.31;40.62;;
37163;Laerm;23057;48.554;14.454;2024-01-30T10:25:46;38.01;34.69;40.53;;
37163;Laerm;23057;48.554;14.454;2024-01-30T10:28:17;38.00;34.69;40.33;;
37163;Laerm;23057;48.554;14.454;2024-01-30T10:30:59;38.03;35.01;40.71;;
37163;Laerm;23057;48.554;14.454;2024-01-30T10:33:34;38.02;34.69;40.43;;
37163;Laerm;23057;48.554;14.454;2024-01-30T10:36:05;38.01;35.04;40.43;;
37163;Laerm;23057;48.554;14.454;2024-01-30T10:38:42;38.01;34.69;40.53;;
37163;Laerm;23057;48.554;14.454;2024-01-30T10:41:24;38.01;34.69;40.53;;
37163;Laerm;23057;48.554;14.454;2024-01-30T10:44:10;38.04;34.31;40.53;;
37163;Laerm;23057;48.554;14.454;2024-01-30T10:46:51;38.07;34.69;40.53;;
37163;Laerm;23057;48.554;14.454;2024-01-30T10:49:24;38.05;33.90;40.33;;
37163;Laerm;23057;48.554;14.454;2024-01-30T10:51:57;38.08;34.69;40.45;;
37163;Laerm;23057;48.554;14.454;2024-01-30T10:54:29;38.09;35.04;40.62;;
37163;Laerm;23057;48.554;14.454;2024-01-30T10:57:02;38.08;34.31;40.43;;
37163;Laerm;23057;48.554;14.454;2024-01-30T10:59:35;38.05;35.04;40.23;;
37163;Laerm;23057;48.554;14.454;2024-01-30T11:02:08;38.05;34.69;40.33;;
37163;Laerm;23057;48.554;14.454;2024-01-30T11:04:43;38.03;34.69;40.80;;
37163;Laerm;23057;48.554;14.454;2024-01-30T11:10:06;38.06;34.69;41.14;;
37163;Laerm;23057;48.554;14.454;2024-01-30T11:12:41;38.10;34.69;40.53;;
37163;Laerm;23057;48.554;14.454;2024-01-30T11:15:18;38.06;34.69;40.43;;
37163;Laerm;23057;48.554;14.454;2024-01-30T11:20:31;38.06;34.31;40.62;;
37163;Laerm;23057;48.554;14.454;2024-01-30T11:23:03;38.06;35.04;40.54;;
37163;Laerm;23057;48.554;14.454;2024-01-30T11:25:37;38.07;34.69;40.71;;
37163;Laerm;23057;48.554;14.454;2024-01-30T11:28:14;38.03;34.69;40.33;;
37163;Laerm;23057;48.554;14.454;2024-01-30T11:30:49;38.06;33.90;40.43;;
37163;Laerm;23057;48.554;14.454;2024-01-30T11:33:30;38.03;33.90;40.23;;
37163;Laerm;23057;48.554;14.454;2024-01-30T11:36:04;38.01;35.04;40.45;;
37163;Laerm;23057;48.554;14.454;2024-01-30T11:38:37;38.02;35.01;40.53;;
37163;Laerm;23057;48.554;14.454;2024-01-30T11:41:09;38.05;33.90;40.62;;
37163;Laerm;23057;48.554;14.454;2024-01-30T11:43:40;38.05;34.31;40.53;;
37163;Laerm;23057;48.554;14.454;2024-01-30T11:46:10;38.05;34.34;40.53;;
37163;Laerm;23057;48.554;14.454;2024-01-30T11:48:41;38.02;34.31;40.43;;
37163;Laerm;23057;48.554;14.454;2024-01-30T11:51:13;38.01;34.69;40.43;;
37163;Laerm;23057;48.554;14.454;2024-01-30T11:53:49;38.03;35.04;40.53;;
37163;Laerm;23057;48.554;14.454;2024-01-30T11:56:20;38.03;34.69;40.43;;
37163;Laerm;23057;48.554;14.454;2024-01-30T11:58:51;38.01;34.69;40.33;;
37163;Laerm;23057;48.554;14.454;2024-01-30T12:01:22;37.99;34.69;40.33;;
37163;Laerm;23057;48.554;14.454;2024-01-30T12:03:53;38.00;34.69;40.53;;
37163;Laerm;23057;48.554;14.454;2024-01-30T12:06:24;38.00;34.31;40.43;;
37163;Laerm;23057;48.554;14.454;2024-01-30T12:09:01;37.98;34.31;40.27;;
37163;Laerm;23057;48.554;14.454;2024-01-30T12:11:47;38.00;33.90;40.23;;
37163;Laerm;23057;48.554;14.454;2024-01-30T12:14:19;37.98;34.69;40.23;;
37163;Laerm;23057;48.554;14.454;2024-01-30T12:16:50;37.97;34.69;40.33;;
37163;Laerm;23057;48.554;14.454;2024-01-30T12:19:24;38.01;33.44;40.53;;
37163;Laerm;23057;48.554;14.454;2024-01-30T12:21:57;37.99;34.31;40.62;;
37163;Laerm;23057;48.554;14.454;2024-01-30T12:24:29;37.95;34.31;40.43;;
37163;Laerm;23057;48.554;14.454;2024-01-30T12:27:04;37.96;33.90;40.89;;
37163;Laerm;23057;48.554;14.454;2024-01-30T12:29:35;37.96;33.90;40.33;;
37163;Laerm;23057;48.554;14.454;2024-01-30T12:32:05;37.97;34.69;40.62;;
37163;Laerm;23057;48.554;14.454;2024-01-30T12:34:41;37.97;34.31;40.33;;
37163;Laerm;23057;48.554;14.454;2024-01-30T12:37:12;37.97;33.90;40.33;;
37163;Laerm;23057;48.554;14.454;2024-01-30T12:39:44;37.96;35.04;40.43;;
37163;Laerm;23057;48.554;14.454;2024-01-30T12:42:15;37.98;33.90;40.71;;
37163;Laerm;23057;48.554;14.454;2024-01-30T12:44:46;37.96;34.69;40.62;;
37163;Laerm;23057;48.554;14.454;2024-01-30T12:47:17;37.95;34.69;40.53;;
37163;Laerm;23057;48.554;14.454;2024-01-30T12:49:48;37.97;34.69;40.53;;
37163;Laerm;23057;48.554;14.454;2024-01-30T12:52:21;37.99;34.69;40.43;;
37163;Laerm;23057;48.554;14.454;2024-01-30T12:54:55;37.99;34.69;40.62;;
37163;Laerm;23057;48.554;14.454;2024-01-30T12:57:25;37.99;34.31;40.62;;
37163;Laerm;23057;48.554;14.454;2024-01-30T12:59:56;37.96;33.90;40.43;;
37163;Laerm;23057;48.554;14.454;2024-01-30T13:02:27;37.96;34.69;40.43;;
37163;Laerm;23057;48.554;14.454;2024-01-30T13:05:05;37.95;34.69;40.71;;
37163;Laerm;23057;48.554;14.454;2024-01-30T13:07:36;37.94;34.31;40.53;;
37163;Laerm;23057;48.554;14.454;2024-01-30T13:10:07;37.95;34.31;40.43;;
37163;Laerm;23057;48.554;14.454;2024-01-30T13:12:38;37.97;35.04;40.54;;
37163;Laerm;23057;48.554;14.454;2024-01-30T13:15:09;37.95;34.69;40.23;;
37163;Laerm;23057;48.554;14.454;2024-01-30T13:17:41;37.97;34.69;40.62;;
37163;Laerm;23057;48.554;14.454;2024-01-30T13:20:14;37.95;34.31;40.62;;
37163;Laerm;23057;48.554;14.454;2024-01-30T13:22:50;37.94;33.44;40.23;;
37163;Laerm;23057;48.554;14.454;2024-01-30T13:25:21;37.95;35.04;40.45;;
37163;Laerm;23057;48.554;14.454;2024-01-30T13:27:51;37.94;33.90;40.23;;
37163;Laerm;23057;48.554;14.454;2024-01-30T13:30:22;37.93;34.69;40.33;;
37163;Laerm;23057;48.554;14.454;2024-01-30T13:32:53;37.91;33.44;40.53;;
37163;Laerm;23057;48.554;14.454;2024-01-30T13:35:24;37.91;33.90;40.33;;
37163;Laerm;23057;48.554;14.454;2024-01-30T13:37:55;37.93;35.04;40.43;;
37163;Laerm;23057;48.554;14.454;2024-01-30T13:40:26;37.94;34.69;40.43;;
37163;Laerm;23057;48.554;14.454;2024-01-30T13:42:57;37.94;34.31;40.43;;
37163;Laerm;23057;48.554;14.454;2024-01-30T13:45:28;37.92;34.69;40.43;;
37163;Laerm;23057;48.554;14.454;2024-01-30T13:47:59;37.91;34.31;40.33;;
37163;Laerm;23057;48.554;14.454;2024-01-30T13:50:30;37.91;34.31;40.43;;
37163;Laerm;23057;48.554;14.454;2024-01-30T13:53:02;37.92;34.31;40.13;;
37163;Laerm;23057;48.554;14.454;2024-01-30T13:55:35;37.93;34.31;40.33;;
37163;Laerm;23057;48.554;14.454;2024-01-30T13:58:06;37.90;35.04;40.53;;
37163;Laerm;23057;48.554;14.454;2024-01-30T14:00:38;37.91;33.90;40.53;;
37163;Laerm;23057;48.554;14.454;2024-01-30T14:03:08;37.92;35.04;40.33;;
37163;Laerm;23057;48.554;14.454;2024-01-30T14:05:39;37.90;34.69;40.53;;